sensor_id;sensor_type;location;lat;lon;timestamp;P1;durP1;ratioP1;P2;durP2;ratioP2
32746;SDS011;19118;50.860;13.662;2023-08-20T00:03:34;8.57;;;6.97;;
32746;SDS011;19118;50.860;13.662;2023-08-20T00:08:35;10.25;;;6.32;;
32746;SDS011;19118;50.860;13.662;2023-08-20T00:13:36;13.52;;;5.80;;
32746;SDS011;19118;50.860;13.662;2023-08-20T00:18:37;9.97;;;5.77;;
32746;SDS011;19118;50.860;13.662;2023-08-20T00:23:38;14.80;;;6.50;;
32746;SDS011;19118;50.860;13.662;2023-08-20T00:28:39;7.00;;;5.70;;
32746;SDS011;19118;50.860;13.662;2023-08-20T00:33:39;9.95;;;6.82;;
32746;SDS011;19118;50.860;13.662;2023-08-20T00:38:40;10.10;;;6.43;;
32746;SDS011;19118;50.860;13.662;2023-08-20T00:43:40;19.83;;;6.13;;
32746;SDS011;19118;50.860;13.662;2023-08-20T00:48:40;10.43;;;6.03;;
32746;SDS011;19118;50.860;13.662;2023-08-20T00:53:41;10.57;;;7.53;;
32746;SDS011;19118;50.860;13.662;2023-08-20T00:58:42;9.07;;;5.53;;
32746;SDS011;19118;50.860;13.662;2023-08-20T01:03:43;10.80;;;5.82;;
32746;SDS011;19118;50.860;13.662;2023-08-20T01:08:43;14.47;;;6.07;;
32746;SDS011;19118;50.860;13.662;2023-08-20T01:13:54;9.63;;;6.32;;
32746;SDS011;19118;50.860;13.662;2023-08-20T01:18:55;9.25;;;5.70;;
32746;SDS011;19118;50.860;13.662;2023-08-20T01:24:29;9.40;;;6.30;;
32746;SDS011;19118;50.860;13.662;2023-08-20T01:29:22;9.07;;;5.72;;
32746;SDS011;19118;50.860;13.662;2023-08-20T01:34:22;7.78;;;5.78;;
32746;SDS011;19118;50.860;13.662;2023-08-20T01:39:24;7.55;;;5.95;;
32746;SDS011;19118;50.860;13.662;2023-08-20T01:44:25;14.87;;;6.60;;
32746;SDS011;19118;50.860;13.662;2023-08-20T01:49:25;10.32;;;6.50;;
32746;SDS011;19118;50.860;13.662;2023-08-20T01:54:25;7.63;;;6.37;;
32746;SDS011;19118;50.860;13.662;2023-08-20T01:59:26;11.32;;;6.10;;
32746;SDS011;19118;50.860;13.662;2023-08-20T02:04:26;14.73;;;7.40;;
32746;SDS011;19118;50.860;13.662;2023-08-20T02:09:27;11.25;;;7.00;;
32746;SDS011;19118;50.860;13.662;2023-08-20T02:14:27;7.73;;;6.13;;
32746;SDS011;19118;50.860;13.662;2023-08-20T02:19:29;9.18;;;6.13;;
32746;SDS011;19118;50.860;13.662;2023-08-20T02:24:29;19.48;;;6.75;;
32746;SDS011;19118;50.860;13.662;2023-08-20T02:29:30;7.70;;;5.75;;
32746;SDS011;19118;50.860;13.662;2023-08-20T02:34:30;6.27;;;5.40;;
32746;SDS011;19118;50.860;13.662;2023-08-20T02:39:30;8.07;;;5.17;;
32746;SDS011;19118;50.860;13.662;2023-08-20T02:44:31;12.20;;;5.63;;
32746;SDS011;19118;50.860;13.662;2023-08-20T02:49:31;15.80;;;5.60;;
32746;SDS011;19118;50.860;13.662;2023-08-20T02:54:32;15.30;;;5.77;;
32746;SDS011;19118;50.860;13.662;2023-08-20T02:59:32;10.23;;;6.43;;
32746;SDS011;19118;50.860;13.662;2023-08-20T03:04:34;14.07;;;5.45;;
32746;SDS011;19118;50.860;13.662;2023-08-20T03:09:35;13.43;;;5.60;;
32746;SDS011;19118;50.860;13.662;2023-08-20T03:14:35;11.23;;;6.17;;
32746;SDS011;19118;50.860;13.662;2023-08-20T03:19:35;16.23;;;5.53;;
32746;SDS011;19118;50.860;13.662;2023-08-20T03:24:36;12.80;;;5.75;;
32746;SDS011;19118;50.860;13.662;2023-08-20T03:29:36;11.33;;;5.77;;
32746;SDS011;19118;50.860;13.662;2023-08-20T03:34:36;10.73;;;5.87;;
32746;SDS011;19118;50.860;13.662;2023-08-20T03:39:37;11.52;;;6.25;;
32746;SDS011;19118;50.860;13.662;2023-08-20T03:44:38;15.43;;;6.70;;
32746;SDS011;19118;50.860;13.662;2023-08-20T03:49:38;26.90;;;6.95;;
32746;SDS011;19118;50.860;13.662;2023-08-20T03:54:38;16.33;;;7.33;;
32746;SDS011;19118;50.860;13.662;2023-08-20T03:59:39;15.55;;;6.43;;
32746;SDS011;19118;50.860;13.662;2023-08-20T04:04:39;14.43;;;7.20;;
32746;SDS011;19118;50.860;13.662;2023-08-20T04:09:40;15.13;;;7.50;;
32746;SDS011;19118;50.860;13.662;2023-08-20T04:14:42;29.05;;;8.07;;
32746;SDS011;19118;50.860;13.662;2023-08-20T04:19:43;17.52;;;7.93;;
32746;SDS011;19118;50.860;13.662;2023-08-20T04:24:43;15.97;;;7.30;;
32746;SDS011;19118;50.860;13.662;2023-08-20T04:29:43;32.63;;;8.02;;
32746;SDS011;19118;50.860;13.662;2023-08-20T04:34:44;22.60;;;8.63;;
32746;SDS011;19118;50.860;13.662;2023-08-20T04:39:48;15.40;;;7.75;;
32746;SDS011;19118;50.860;13.662;2023-08-20T04:44:49;16.13;;;8.52;;
32746;SDS011;19118;50.860;13.662;2023-08-20T04:49:49;17.98;;;7.47;;
32746;SDS011;19118;50.860;13.662;2023-08-20T04:54:51;12.10;;;7.78;;
32746;SDS011;19118;50.860;13.662;2023-08-20T04:59:54;15.00;;;8.43;;
32746;SDS011;19118;50.860;13.662;2023-08-20T05:05:01;11.15;;;7.53;;
32746;SDS011;19118;50.860;13.662;2023-08-20T05:10:02;15.98;;;7.45;;
32746;SDS011;19118;50.860;13.662;2023-08-20T05:15:04;17.20;;;8.15;;
32746;SDS011;19118;50.860;13.662;2023-08-20T05:20:05;15.25;;;8.88;;
32746;SDS011;19118;50.860;13.662;2023-08-20T05:25:06;12.48;;;8.00;;
32746;SDS011;19118;50.860;13.662;2023-08-20T05:30:07;15.20;;;8.20;;
32746;SDS011;19118;50.860;13.662;2023-08-20T05:35:09;11.48;;;8.02;;
32746;SDS011;19118;50.860;13.662;2023-08-20T05:40:11;19.00;;;8.48;;
32746;SDS011;19118;50.860;13.662;2023-08-20T05:45:12;24.48;;;8.70;;
32746;SDS011;19118;50.860;13.662;2023-08-20T05:50:13;15.50;;;7.90;;
32746;SDS011;19118;50.860;13.662;2023-08-20T05:55:14;12.65;;;8.55;;
32746;SDS011;19118;50.860;13.662;2023-08-20T06:00:15;18.27;;;8.10;;
32746;SDS011;19118;50.860;13.662;2023-08-20T06:05:20;14.57;;;7.35;;
32746;SDS011;19118;50.860;13.662;2023-08-20T06:10:20;17.13;;;8.27;;
32746;SDS011;19118;50.860;13.662;2023-08-20T06:15:20;19.60;;;9.27;;
32746;SDS011;19118;50.860;13.662;2023-08-20T06:20:21;18.53;;;8.33;;
32746;SDS011;19118;50.860;13.662;2023-08-20T06:25:21;15.98;;;8.52;;
32746;SDS011;19118;50.860;13.662;2023-08-20T06:30:21;15.50;;;8.32;;
32746;SDS011;19118;50.860;13.662;2023-08-20T06:35:22;19.57;;;8.00;;
32746;SDS011;19118;50.860;13.662;2023-08-20T06:40:22;13.67;;;7.83;;
32746;SDS011;19118;50.860;13.662;2023-08-20T06:45:22;20.00;;;9.17;;
32746;SDS011;19118;50.860;13.662;2023-08-20T06:50:23;21.80;;;8.88;;
32746;SDS011;19118;50.860;13.662;2023-08-20T06:55:23;11.63;;;7.40;;
32746;SDS011;19118;50.860;13.662;2023-08-20T07:00:24;16.60;;;7.22;;
32746;SDS011;19118;50.860;13.662;2023-08-20T07:05:24;13.90;;;8.10;;
32746;SDS011;19118;50.860;13.662;2023-08-20T07:10:25;18.17;;;8.73;;
32746;SDS011;19118;50.860;13.662;2023-08-20T07:15:25;14.00;;;7.95;;
32746;SDS011;19118;50.860;13.662;2023-08-20T07:20:25;13.87;;;6.27;;
32746;SDS011;19118;50.860;13.662;2023-08-20T07:25:26;22.80;;;6.90;;
32746;SDS011;19118;50.860;13.662;2023-08-20T07:30:26;24.30;;;6.80;;
32746;SDS011;19118;50.860;13.662;2023-08-20T07:35:26;10.37;;;6.43;;
32746;SDS011;19118;50.860;13.662;2023-08-20T07:40:27;13.10;;;6.28;;
32746;SDS011;19118;50.860;13.662;2023-08-20T07:45:27;13.67;;;5.97;;
32746;SDS011;19118;50.860;13.662;2023-08-20T07:50:28;9.38;;;6.05;;
32746;SDS011;19118;50.860;13.662;2023-08-20T07:55:28;13.23;;;6.30;;
32746;SDS011;19118;50.860;13.662;2023-08-20T08:00:28;18.17;;;6.53;;
32746;SDS011;19118;50.860;13.662;2023-08-20T08:05:29;8.97;;;6.23;;
32746;SDS011;19118;50.860;13.662;2023-08-20T08:10:29;8.63;;;5.57;;
32746;SDS011;19118;50.860;13.662;2023-08-20T08:15:29;8.37;;;5.30;;
32746;SDS011;19118;50.860;13.662;2023-08-20T08:20:30;8.27;;;5.43;;
32746;SDS011;19118;50.860;13.662;2023-08-20T08:25:31;10.45;;;6.22;;
32746;SDS011;19118;50.860;13.662;2023-08-20T08:30:31;10.60;;;5.57;;
32746;SDS011;19118;50.860;13.662;2023-08-20T08:35:32;7.63;;;4.82;;
32746;SDS011;19118;50.860;13.662;2023-08-20T08:40:32;17.08;;;4.97;;
32746;SDS011;19118;50.860;13.662;2023-08-20T08:45:33;13.27;;;5.18;;
32746;SDS011;19118;50.860;13.662;2023-08-20T08:50:34;6.30;;;4.53;;
32746;SDS011;19118;50.860;13.662;2023-08-20T08:55:34;8.68;;;5.07;;
32746;SDS011;19118;50.860;13.662;2023-08-20T09:00:35;9.45;;;5.00;;
32746;SDS011;19118;50.860;13.662;2023-08-20T09:05:48;5.43;;;4.50;;
32746;SDS011;19118;50.860;13.662;2023-08-20T09:10:52;12.10;;;7.18;;
32746;SDS011;19118;50.860;13.662;2023-08-20T09:15:55;11.38;;;5.53;;
32746;SDS011;19118;50.860;13.662;2023-08-20T09:20:56;8.07;;;5.33;;
32746;SDS011;19118;50.860;13.662;2023-08-20T09:25:57;11.20;;;6.03;;
32746;SDS011;19118;50.860;13.662;2023-08-20T09:31:02;10.00;;;6.60;;
32746;SDS011;19118;50.860;13.662;2023-08-20T09:36:02;8.73;;;4.85;;
32746;SDS011;19118;50.860;13.662;2023-08-20T09:41:04;9.68;;;5.55;;
32746;SDS011;19118;50.860;13.662;2023-08-20T09:46:05;9.88;;;5.10;;
32746;SDS011;19118;50.860;13.662;2023-08-20T09:51:10;8.95;;;5.55;;
32746;SDS011;19118;50.860;13.662;2023-08-20T09:56:18;15.10;;;6.05;;
32746;SDS011;19118;50.860;13.662;2023-08-20T10:01:25;7.47;;;6.45;;
32746;SDS011;19118;50.860;13.662;2023-08-20T10:06:27;11.32;;;7.50;;
32746;SDS011;19118;50.860;13.662;2023-08-20T10:11:29;15.15;;;7.80;;
32746;SDS011;19118;50.860;13.662;2023-08-20T10:16:29;11.90;;;8.50;;
32746;SDS011;19118;50.860;13.662;2023-08-20T10:21:33;16.10;;;9.18;;
32746;SDS011;19118;50.860;13.662;2023-08-20T10:26:33;15.05;;;9.07;;
32746;SDS011;19118;50.860;13.662;2023-08-20T10:31:35;15.73;;;8.82;;
32746;SDS011;19118;50.860;13.662;2023-08-20T10:36:35;13.03;;;8.07;;
32746;SDS011;19118;50.860;13.662;2023-08-20T10:41:41;13.52;;;8.52;;
32746;SDS011;19118;50.860;13.662;2023-08-20T10:46:49;14.70;;;8.43;;
32746;SDS011;19118;50.860;13.662;2023-08-20T10:51:51;11.57;;;8.23;;
32746;SDS011;19118;50.860;13.662;2023-08-20T10:56:57;17.33;;;9.07;;
32746;SDS011;19118;50.860;13.662;2023-08-20T11:02:01;9.65;;;6.80;;
32746;SDS011;19118;50.860;13.662;2023-08-20T11:07:03;11.48;;;7.75;;
32746;SDS011;19118;50.860;13.662;2023-08-20T11:12:04;11.48;;;7.60;;
32746;SDS011;19118;50.860;13.662;2023-08-20T11:17:05;12.50;;;8.23;;
32746;SDS011;19118;50.860;13.662;2023-08-20T11:22:06;22.92;;;8.32;;
32746;SDS011;19118;50.860;13.662;2023-08-20T11:27:08;12.70;;;7.50;;
32746;SDS011;19118;50.860;13.662;2023-08-20T11:32:08;15.17;;;7.03;;
32746;SDS011;19118;50.860;13.662;2023-08-20T11:37:09;17.75;;;7.60;;
32746;SDS011;19118;50.860;13.662;2023-08-20T11:42:10;13.07;;;7.25;;
32746;SDS011;19118;50.860;13.662;2023-08-20T11:47:14;14.32;;;6.95;;
32746;SDS011;19118;50.860;13.662;2023-08-20T11:52:18;12.27;;;6.72;;
32746;SDS011;19118;50.860;13.662;2023-08-20T11:57:20;11.93;;;7.03;;
32746;SDS011;19118;50.860;13.662;2023-08-20T12:02:24;11.65;;;7.97;;
32746;SDS011;19118;50.860;13.662;2023-08-20T12:07:26;12.23;;;6.88;;
32746;SDS011;19118;50.860;13.662;2023-08-20T12:12:29;11.18;;;7.32;;
32746;SDS011;19118;50.860;13.662;2023-08-20T12:17:30;9.57;;;7.20;;
32746;SDS011;19118;50.860;13.662;2023-08-20T12:22:30;16.42;;;6.28;;
32746;SDS011;19118;50.860;13.662;2023-08-20T12:27:30;9.50;;;6.13;;
32746;SDS011;19118;50.860;13.662;2023-08-20T12:32:31;10.13;;;7.03;;
32746;SDS011;19118;50.860;13.662;2023-08-20T12:37:31;12.03;;;6.10;;
32746;SDS011;19118;50.860;13.662;2023-08-20T12:42:32;8.00;;;5.90;;
32746;SDS011;19118;50.860;13.662;2023-08-20T12:47:32;9.10;;;5.70;;
32746;SDS011;19118;50.860;13.662;2023-08-20T12:52:33;12.02;;;4.93;;
32746;SDS011;19118;50.860;13.662;2023-08-20T12:57:34;13.18;;;5.50;;
32746;SDS011;19118;50.860;13.662;2023-08-20T13:02:35;12.82;;;5.13;;
32746;SDS011;19118;50.860;13.662;2023-08-20T13:07:36;7.82;;;5.22;;
32746;SDS011;19118;50.860;13.662;2023-08-20T13:12:37;9.00;;;4.80;;
32746;SDS011;19118;50.860;13.662;2023-08-20T13:17:41;13.25;;;4.45;;
32746;SDS011;19118;50.860;13.662;2023-08-20T13:22:41;10.95;;;5.50;;
32746;SDS011;19118;50.860;13.662;2023-08-20T13:27:43;10.20;;;4.90;;
32746;SDS011;19118;50.860;13.662;2023-08-20T13:32:43;8.70;;;5.20;;
32746;SDS011;19118;50.860;13.662;2023-08-20T13:37:44;9.97;;;4.27;;
32746;SDS011;19118;50.860;13.662;2023-08-20T13:42:44;13.43;;;5.20;;
32746;SDS011;19118;50.860;13.662;2023-08-20T13:47:44;10.47;;;5.43;;
32746;SDS011;19118;50.860;13.662;2023-08-20T13:52:45;8.27;;;5.03;;
32746;SDS011;19118;50.860;13.662;2023-08-20T13:57:45;7.50;;;4.57;;
32746;SDS011;19118;50.860;13.662;2023-08-20T14:02:46;14.77;;;4.80;;
32746;SDS011;19118;50.860;13.662;2023-08-20T14:07:46;9.93;;;5.03;;
32746;SDS011;19118;50.860;13.662;2023-08-20T14:12:47;12.40;;;5.53;;
32746;SDS011;19118;50.860;13.662;2023-08-20T14:17:47;8.40;;;5.10;;
32746;SDS011;19118;50.860;13.662;2023-08-20T14:22:48;9.45;;;4.90;;
32746;SDS011;19118;50.860;13.662;2023-08-20T14:27:48;14.03;;;5.17;;
32746;SDS011;19118;50.860;13.662;2023-08-20T14:32:49;15.23;;;5.30;;
32746;SDS011;19118;50.860;13.662;2023-08-20T14:37:51;6.93;;;5.20;;
32746;SDS011;19118;50.860;13.662;2023-08-20T14:42:52;9.50;;;4.68;;
32746;SDS011;19118;50.860;13.662;2023-08-20T14:47:53;7.57;;;5.35;;
32746;SDS011;19118;50.860;13.662;2023-08-20T14:52:54;11.30;;;6.45;;
32746;SDS011;19118;50.860;13.662;2023-08-20T14:57:54;8.80;;;5.00;;
32746;SDS011;19118;50.860;13.662;2023-08-20T15:02:55;8.23;;;5.33;;
32746;SDS011;19118;50.860;13.662;2023-08-20T15:07:55;10.57;;;5.17;;
32746;SDS011;19118;50.860;13.662;2023-08-20T15:12:55;5.13;;;3.70;;
32746;SDS011;19118;50.860;13.662;2023-08-20T15:17:56;13.97;;;4.03;;
32746;SDS011;19118;50.860;13.662;2023-08-20T15:22:56;6.72;;;3.60;;
32746;SDS011;19118;50.860;13.662;2023-08-20T15:27:57;11.90;;;4.20;;
32746;SDS011;19118;50.860;13.662;2023-08-20T15:32:57;6.70;;;3.63;;
32746;SDS011;19118;50.860;13.662;2023-08-20T15:37:57;5.43;;;3.90;;
32746;SDS011;19118;50.860;13.662;2023-08-20T15:42:58;7.97;;;3.87;;
32746;SDS011;19118;50.860;13.662;2023-08-20T15:47:58;6.40;;;4.13;;
32746;SDS011;19118;50.860;13.662;2023-08-20T15:52:58;6.50;;;3.17;;
32746;SDS011;19118;50.860;13.662;2023-08-20T15:57:59;3.77;;;2.80;;
32746;SDS011;19118;50.860;13.662;2023-08-20T16:02:59;6.97;;;2.67;;
32746;SDS011;19118;50.860;13.662;2023-08-20T16:08:00;5.90;;;2.90;;
32746;SDS011;19118;50.860;13.662;2023-08-20T16:13:00;5.60;;;2.95;;
32746;SDS011;19118;50.860;13.662;2023-08-20T16:18:01;5.33;;;3.17;;
32746;SDS011;19118;50.860;13.662;2023-08-20T16:23:02;7.80;;;3.08;;
32746;SDS011;19118;50.860;13.662;2023-08-20T16:28:02;8.57;;;3.33;;
32746;SDS011;19118;50.860;13.662;2023-08-20T16:33:03;5.30;;;2.35;;
32746;SDS011;19118;50.860;13.662;2023-08-20T16:38:04;5.18;;;2.72;;
32746;SDS011;19118;50.860;13.662;2023-08-20T16:43:05;5.97;;;2.70;;
32746;SDS011;19118;50.860;13.662;2023-08-20T16:48:06;13.25;;;2.70;;
32746;SDS011;19118;50.860;13.662;2023-08-20T16:53:06;13.75;;;3.13;;
32746;SDS011;19118;50.860;13.662;2023-08-20T16:58:06;7.77;;;3.10;;
32746;SDS011;19118;50.860;13.662;2023-08-20T17:03:07;5.45;;;3.63;;
32746;SDS011;19118;50.860;13.662;2023-08-20T17:08:07;5.88;;;3.47;;
32746;SDS011;19118;50.860;13.662;2023-08-20T17:13:08;4.38;;;3.20;;
32746;SDS011;19118;50.860;13.662;2023-08-20T17:18:08;8.63;;;3.05;;
32746;SDS011;19118;50.860;13.662;2023-08-20T17:23:09;6.50;;;3.53;;
32746;SDS011;19118;50.860;13.662;2023-08-20T17:28:10;7.47;;;3.92;;
32746;SDS011;19118;50.860;13.662;2023-08-20T17:33:10;8.93;;;3.50;;
32746;SDS011;19118;50.860;13.662;2023-08-20T17:38:15;8.30;;;3.75;;
32746;SDS011;19118;50.860;13.662;2023-08-20T17:43:17;6.25;;;3.30;;
32746;SDS011;19118;50.860;13.662;2023-08-20T17:48:17;10.75;;;3.65;;
32746;SDS011;19118;50.860;13.662;2023-08-20T17:53:17;11.40;;;3.90;;
32746;SDS011;19118;50.860;13.662;2023-08-20T17:58:19;7.33;;;3.93;;
32746;SDS011;19118;50.860;13.662;2023-08-20T18:03:22;6.88;;;3.95;;
32746;SDS011;19118;50.860;13.662;2023-08-20T18:08:22;7.33;;;4.13;;
32746;SDS011;19118;50.860;13.662;2023-08-20T18:13:22;5.43;;;4.07;;
32746;SDS011;19118;50.860;13.662;2023-08-20T18:18:23;6.13;;;3.85;;
32746;SDS011;19118;50.860;13.662;2023-08-20T18:23:23;5.13;;;3.88;;
32746;SDS011;19118;50.860;13.662;2023-08-20T18:28:24;7.68;;;4.07;;
32746;SDS011;19118;50.860;13.662;2023-08-20T18:33:24;5.93;;;4.37;;
32746;SDS011;19118;50.860;13.662;2023-08-20T18:43:30;7.57;;;4.15;;
32746;SDS011;19118;50.860;13.662;2023-08-20T18:48:33;7.85;;;4.88;;
32746;SDS011;19118;50.860;13.662;2023-08-20T18:53:34;8.70;;;4.07;;
32746;SDS011;19118;50.860;13.662;2023-08-20T18:58:35;10.32;;;4.53;;
32746;SDS011;19118;50.860;13.662;2023-08-20T19:03:35;6.30;;;4.13;;
32746;SDS011;19118;50.860;13.662;2023-08-20T19:08:35;6.97;;;4.67;;
32746;SDS011;19118;50.860;13.662;2023-08-20T19:13:36;7.73;;;5.20;;
32746;SDS011;19118;50.860;13.662;2023-08-20T19:18:36;7.55;;;4.53;;
32746;SDS011;19118;50.860;13.662;2023-08-20T19:23:37;8.45;;;4.47;;
32746;SDS011;19118;50.860;13.662;2023-08-20T19:28:37;6.67;;;4.60;;
32746;SDS011;19118;50.860;13.662;2023-08-20T19:33:38;7.18;;;4.35;;
32746;SDS011;19118;50.860;13.662;2023-08-20T19:38:38;6.55;;;4.60;;
32746;SDS011;19118;50.860;13.662;2023-08-20T19:43:39;8.25;;;4.78;;
32746;SDS011;19118;50.860;13.662;2023-08-20T19:48:39;7.90;;;4.50;;
32746;SDS011;19118;50.860;13.662;2023-08-20T19:53:40;8.23;;;4.93;;
32746;SDS011;19118;50.860;13.662;2023-08-20T19:58:44;6.40;;;4.43;;
32746;SDS011;19118;50.860;13.662;2023-08-20T20:03:44;8.65;;;4.65;;
32746;SDS011;19118;50.860;13.662;2023-08-20T20:08:45;11.02;;;5.53;;
32746;SDS011;19118;50.860;13.662;2023-08-20T20:13:45;11.67;;;5.57;;
32746;SDS011;19118;50.860;13.662;2023-08-20T20:18:45;10.07;;;5.57;;
32746;SDS011;19118;50.860;13.662;2023-08-20T20:23:46;11.00;;;5.40;;
32746;SDS011;19118;50.860;13.662;2023-08-20T20:28:46;9.40;;;5.70;;
32746;SDS011;19118;50.860;13.662;2023-08-20T20:33:47;11.02;;;5.78;;
32746;SDS011;19118;50.860;13.662;2023-08-20T20:38:47;12.33;;;5.50;;
32746;SDS011;19118;50.860;13.662;2023-08-20T20:43:47;10.43;;;5.90;;
32746;SDS011;19118;50.860;13.662;2023-08-20T20:48:48;7.07;;;5.55;;
32746;SDS011;19118;50.860;13.662;2023-08-20T20:53:48;9.37;;;5.60;;
32746;SDS011;19118;50.860;13.662;2023-08-20T20:58:48;9.40;;;6.40;;
32746;SDS011;19118;50.860;13.662;2023-08-20T21:03:49;8.30;;;5.27;;
32746;SDS011;19118;50.860;13.662;2023-08-20T21:08:50;9.18;;;6.05;;
32746;SDS011;19118;50.860;13.662;2023-08-20T21:13:51;8.47;;;5.60;;
32746;SDS011;19118;50.860;13.662;2023-08-20T21:18:51;9.97;;;6.87;;
32746;SDS011;19118;50.860;13.662;2023-08-20T21:23:51;13.63;;;6.28;;
32746;SDS011;19118;50.860;13.662;2023-08-20T21:28:55;10.85;;;6.88;;
32746;SDS011;19118;50.860;13.662;2023-08-20T21:33:55;13.53;;;6.87;;
32746;SDS011;19118;50.860;13.662;2023-08-20T21:38:56;8.13;;;5.90;;
32746;SDS011;19118;50.860;13.662;2023-08-20T21:43:57;12.10;;;6.28;;
32746;SDS011;19118;50.860;13.662;2023-08-20T21:48:58;7.70;;;6.38;;
32746;SDS011;19118;50.860;13.662;2023-08-20T21:53:58;8.30;;;5.60;;
32746;SDS011;19118;50.860;13.662;2023-08-20T21:59:01;7.70;;;6.50;;
32746;SDS011;19118;50.860;13.662;2023-08-20T22:04:02;9.80;;;6.53;;
32746;SDS011;19118;50.860;13.662;2023-08-20T22:09:02;10.35;;;6.20;;
32746;SDS011;19118;50.860;13.662;2023-08-20T22:14:03;6.32;;;5.30;;
32746;SDS011;19118;50.860;13.662;2023-08-20T22:19:03;9.32;;;6.10;;
32746;SDS011;19118;50.860;13.662;2023-08-20T22:24:04;12.35;;;6.00;;
32746;SDS011;19118;50.860;13.662;2023-08-20T22:29:04;18.00;;;6.80;;
32746;SDS011;19118;50.860;13.662;2023-08-20T22:34:06;23.85;;;7.60;;
32746;SDS011;19118;50.860;13.662;2023-08-20T22:39:06;17.40;;;7.40;;
32746;SDS011;19118;50.860;13.662;2023-08-20T22:44:06;12.37;;;7.80;;
32746;SDS011;19118;50.860;13.662;2023-08-20T22:49:07;12.20;;;7.97;;
32746;SDS011;19118;50.860;13.662;2023-08-20T22:54:07;17.10;;;8.43;;
32746;SDS011;19118;50.860;13.662;2023-08-20T22:59:07;14.43;;;8.02;;
32746;SDS011;19118;50.860;13.662;2023-08-20T23:04:08;11.00;;;7.30;;
32746;SDS011;19118;50.860;13.662;2023-08-20T23:09:08;14.23;;;8.83;;
32746;SDS011;19118;50.860;13.662;2023-08-20T23:14:09;11.97;;;8.17;;
32746;SDS011;19118;50.860;13.662;2023-08-20T23:19:10;15.48;;;9.13;;
32746;SDS011;19118;50.860;13.662;2023-08-20T23:24:12;11.07;;;8.25;;
32746;SDS011;19118;50.860;13.662;2023-08-20T23:29:12;13.97;;;9.43;;
32746;SDS011;19118;50.860;13.662;2023-08-20T23:34:12;15.50;;;9.33;;
32746;SDS011;19118;50.860;13.662;2023-08-20T23:39:13;12.67;;;9.07;;
32746;SDS011;19118;50.860;13.662;2023-08-20T23:44:13;12.07;;;9.07;;
32746;SDS011;19118;50.860;13.662;2023-08-20T23:49:14;10.05;;;8.55;;
32746;SDS011;19118;50.860;13.662;2023-08-20T23:54:15;18.05;;;8.98;;
32746;SDS011;19118;50.860;13.662;2023-08-20T23:59:15;12.85;;;8.90;;
